sensor_id;sensor_type;location;lat;lon;timestamp;pressure;altitude;pressure_sealevel;temperature;humidity
63819;BME280;49970;54.976;73.248;2022-07-22T00:00:36;98882.28;;;18.18;82.94
63819;BME280;49970;54.976;73.248;2022-07-22T00:03:03;98884.97;;;18.18;83.08
63819;BME280;49970;54.976;73.248;2022-07-22T00:05:29;98888.50;;;18.19;82.90
63819;BME280;49970;54.976;73.248;2022-07-22T00:08:01;98881.66;;;18.16;83.13
63819;BME280;49970;54.976;73.248;2022-07-22T00:10:27;98882.13;;;18.20;83.12
63819;BME280;49970;54.976;73.248;2022-07-22T00:12:54;98884.78;;;18.20;82.78
63819;BME280;49970;54.976;73.248;2022-07-22T00:15:21;98880.25;;;18.20;83.12
63819;BME280;49970;54.976;73.248;2022-07-22T00:17:50;98885.41;;;18.22;82.89
63819;BME280;49970;54.976;73.248;2022-07-22T00:20:21;98888.66;;;18.17;83.20
63819;BME280;49970;54.976;73.248;2022-07-22T00:22:51;98895.06;;;18.16;83.33
63819;BME280;49970;54.976;73.248;2022-07-22T00:25:26;98889.06;;;18.14;83.08
63819;BME280;49970;54.976;73.248;2022-07-22T00:27:54;98871.44;;;18.05;83.64
63819;BME280;49970;54.976;73.248;2022-07-22T00:30:21;98889.50;;;18.17;83.51
63819;BME280;49970;54.976;73.248;2022-07-22T00:32:47;98891.81;;;18.21;83.40
63819;BME280;49970;54.976;73.248;2022-07-22T00:35:14;98900.28;;;18.24;83.60
63819;BME280;49970;54.976;73.248;2022-07-22T00:37:50;98901.13;;;18.25;83.27
63819;BME280;49970;54.976;73.248;2022-07-22T00:40:16;98902.59;;;18.27;83.57
63819;BME280;49970;54.976;73.248;2022-07-22T00:42:42;98899.63;;;18.22;83.40
63819;BME280;49970;54.976;73.248;2022-07-22T00:45:09;98888.50;;;18.19;83.26
63819;BME280;49970;54.976;73.248;2022-07-22T00:47:40;98905.06;;;18.29;82.98
63819;BME280;49970;54.976;73.248;2022-07-22T00:50:07;98913.31;;;18.27;83.30
63819;BME280;49970;54.976;73.248;2022-07-22T00:52:39;98914.97;;;18.28;83.13
63819;BME280;49970;54.976;73.248;2022-07-22T00:55:08;98909.97;;;18.25;83.55
63819;BME280;49970;54.976;73.248;2022-07-22T00:57:40;98914.06;;;18.21;83.56
63819;BME280;49970;54.976;73.248;2022-07-22T01:00:10;98902.44;;;18.14;83.98
63819;BME280;49970;54.976;73.248;2022-07-22T01:02:37;98910.94;;;18.17;83.99
63819;BME280;49970;54.976;73.248;2022-07-22T01:05:05;98922.31;;;18.20;84.21
63819;BME280;49970;54.976;73.248;2022-07-22T01:07:32;98908.22;;;18.11;84.25
63819;BME280;49970;54.976;73.248;2022-07-22T01:10:00;98912.41;;;18.20;84.54
63819;BME280;49970;54.976;73.248;2022-07-22T01:12:26;98913.44;;;18.19;84.50
63819;BME280;49970;54.976;73.248;2022-07-22T01:14:53;98924.63;;;18.23;85.03
63819;BME280;49970;54.976;73.248;2022-07-22T01:17:20;98923.59;;;18.24;84.74
63819;BME280;49970;54.976;73.248;2022-07-22T01:19:46;98930.69;;;18.31;85.01
63819;BME280;49970;54.976;73.248;2022-07-22T01:22:12;98896.84;;;18.09;84.90
63819;BME280;49970;54.976;73.248;2022-07-22T01:24:39;98933.47;;;18.23;85.15
63819;BME280;49970;54.976;73.248;2022-07-22T01:27:10;98943.78;;;18.26;85.38
63819;BME280;49970;54.976;73.248;2022-07-22T01:29:36;98937.84;;;18.31;85.02
63819;BME280;49970;54.976;73.248;2022-07-22T01:32:03;98945.91;;;18.31;85.36
63819;BME280;49970;54.976;73.248;2022-07-22T01:34:29;98938.44;;;18.26;85.38
63819;BME280;49970;54.976;73.248;2022-07-22T01:36:55;98935.75;;;18.26;85.94
63819;BME280;49970;54.976;73.248;2022-07-22T01:39:22;98938.63;;;18.25;85.89
63819;BME280;49970;54.976;73.248;2022-07-22T01:41:49;98942.00;;;18.33;85.58
63819;BME280;49970;54.976;73.248;2022-07-22T01:44:15;98944.50;;;18.35;85.98
63819;BME280;49970;54.976;73.248;2022-07-22T01:46:41;98942.47;;;18.37;85.89
63819;BME280;49970;54.976;73.248;2022-07-22T01:49:07;98950.75;;;18.42;86.03
63819;BME280;49970;54.976;73.248;2022-07-22T01:51:37;98952.84;;;18.47;86.00
63819;BME280;49970;54.976;73.248;2022-07-22T01:54:04;98953.44;;;18.42;85.98
63819;BME280;49970;54.976;73.248;2022-07-22T01:56:31;98961.94;;;18.46;86.51
63819;BME280;49970;54.976;73.248;2022-07-22T01:58:57;98960.13;;;18.53;86.04
63819;BME280;49970;54.976;73.248;2022-07-22T02:01:27;98967.78;;;18.56;85.87
63819;BME280;49970;54.976;73.248;2022-07-22T02:03:53;98967.34;;;18.52;86.19
63819;BME280;49970;54.976;73.248;2022-07-22T02:06:20;98976.28;;;18.59;86.07
63819;BME280;49970;54.976;73.248;2022-07-22T02:08:47;98969.63;;;18.55;85.79
63819;BME280;49970;54.976;73.248;2022-07-22T02:11:14;98977.88;;;18.54;86.30
63819;BME280;49970;54.976;73.248;2022-07-22T02:13:50;98973.47;;;18.46;86.10
63819;BME280;49970;54.976;73.248;2022-07-22T02:16:16;98982.22;;;18.55;86.33
63819;BME280;49970;54.976;73.248;2022-07-22T02:18:43;98986.31;;;18.51;86.52
63819;BME280;49970;54.976;73.248;2022-07-22T02:21:09;98990.84;;;18.50;86.64
63819;BME280;49970;54.976;73.248;2022-07-22T02:23:35;98989.22;;;18.56;86.76
63819;BME280;49970;54.976;73.248;2022-07-22T02:26:06;98989.31;;;18.62;86.75
63819;BME280;49970;54.976;73.248;2022-07-22T02:28:33;98996.03;;;18.73;86.23
63819;BME280;49970;54.976;73.248;2022-07-22T02:31:01;98998.72;;;18.73;86.07
63819;BME280;49970;54.976;73.248;2022-07-22T02:33:38;98995.13;;;18.66;86.17
63819;BME280;49970;54.976;73.248;2022-07-22T02:36:05;98998.00;;;18.64;85.68
63819;BME280;49970;54.976;73.248;2022-07-22T02:38:33;99003.88;;;18.75;86.21
63819;BME280;49970;54.976;73.248;2022-07-22T02:41:00;99009.69;;;18.78;86.45
63819;BME280;49970;54.976;73.248;2022-07-22T02:43:26;99005.34;;;18.77;85.98
63819;BME280;49970;54.976;73.248;2022-07-22T02:46:03;99016.78;;;18.86;85.50
63819;BME280;49970;54.976;73.248;2022-07-22T02:48:30;99011.34;;;18.79;85.33
63819;BME280;49970;54.976;73.248;2022-07-22T02:51:02;99017.38;;;18.81;85.54
63819;BME280;49970;54.976;73.248;2022-07-22T02:53:33;99015.31;;;18.83;85.30
63819;BME280;49970;54.976;73.248;2022-07-22T02:56:01;99025.81;;;18.85;85.25
63819;BME280;49970;54.976;73.248;2022-07-22T02:58:27;99023.66;;;18.95;85.75
63819;BME280;49970;54.976;73.248;2022-07-22T03:01:14;99032.31;;;18.97;85.02
63819;BME280;49970;54.976;73.248;2022-07-22T03:05:29;99030.38;;;18.84;84.83
63819;BME280;49970;54.976;73.248;2022-07-22T03:17:07;99052.34;;;19.23;83.37
63819;BME280;49970;54.976;73.248;2022-07-22T03:21:22;99048.34;;;19.12;83.36
63819;BME280;49970;54.976;73.248;2022-07-22T03:25:38;99059.72;;;19.14;83.70
63819;BME280;49970;54.976;73.248;2022-07-22T03:29:29;99060.91;;;19.33;83.17
63819;BME280;49970;54.976;73.248;2022-07-22T03:33:20;99063.13;;;19.29;82.04
63819;BME280;49970;54.976;73.248;2022-07-22T03:48:48;99070.31;;;19.22;83.03
63819;BME280;49970;54.976;73.248;2022-07-22T03:52:39;99075.50;;;19.24;82.94
63819;BME280;49970;54.976;73.248;2022-07-22T04:01:00;99065.34;;;19.19;83.52
63819;BME280;49970;54.976;73.248;2022-07-22T04:05:17;99052.16;;;19.24;83.25
63819;BME280;49970;54.976;73.248;2022-07-22T04:13:03;99078.53;;;19.70;82.45
63819;BME280;49970;54.976;73.248;2022-07-22T04:17:19;99082.66;;;20.14;81.39
63819;BME280;49970;54.976;73.248;2022-07-22T04:21:11;99068.88;;;20.44;80.47
63819;BME280;49970;54.976;73.248;2022-07-22T04:25:05;99067.66;;;20.46;79.70
63819;BME280;49970;54.976;73.248;2022-07-22T04:28:58;99089.44;;;20.58;79.15
63819;BME280;49970;54.976;73.248;2022-07-22T04:36:38;99077.00;;;20.50;76.25
63819;BME280;49970;54.976;73.248;2022-07-22T04:40:31;99044.53;;;20.58;77.44
63819;BME280;49970;54.976;73.248;2022-07-22T04:44:22;99084.94;;;21.05;76.60
63819;BME280;49970;54.976;73.248;2022-07-22T04:48:14;99083.28;;;20.91;74.79
63819;BME280;49970;54.976;73.248;2022-07-22T04:55:59;99092.63;;;20.95;74.91
63819;BME280;49970;54.976;73.248;2022-07-22T05:04:03;99100.50;;;21.29;75.35
63819;BME280;49970;54.976;73.248;2022-07-22T05:07:54;99105.06;;;21.49;74.68
63819;BME280;49970;54.976;73.248;2022-07-22T05:15:35;99113.13;;;21.62;71.29
63819;BME280;49970;54.976;73.248;2022-07-22T05:19:28;99123.69;;;21.57;72.28
63819;BME280;49970;54.976;73.248;2022-07-22T05:27:09;99118.34;;;21.37;72.89
63819;BME280;49970;54.976;73.248;2022-07-22T05:31:08;99069.00;;;21.17;72.11
63819;BME280;49970;54.976;73.248;2022-07-22T07:36:42;99141.47;;;23.01;62.17
63819;BME280;49970;54.976;73.248;2022-07-22T07:39:14;99132.28;;;23.08;62.10
63819;BME280;49970;54.976;73.248;2022-07-22T07:41:46;99140.09;;;23.17;61.05
63819;BME280;49970;54.976;73.248;2022-07-22T07:44:17;99130.22;;;23.04;61.30
63819;BME280;49970;54.976;73.248;2022-07-22T07:46:59;99148.09;;;23.05;60.41
63819;BME280;49970;54.976;73.248;2022-07-22T07:49:30;99150.94;;;23.10;60.33
63819;BME280;49970;54.976;73.248;2022-07-22T07:52:01;99146.88;;;23.26;59.71
63819;BME280;49970;54.976;73.248;2022-07-22T07:54:32;99144.41;;;23.24;57.85
63819;BME280;49970;54.976;73.248;2022-07-22T07:57:04;99150.69;;;23.18;58.78
63819;BME280;49970;54.976;73.248;2022-07-22T07:59:34;99142.19;;;23.15;60.06
63819;BME280;49970;54.976;73.248;2022-07-22T08:02:18;99146.16;;;23.12;59.82
63819;BME280;49970;54.976;73.248;2022-07-22T08:04:49;99156.84;;;23.00;59.14
63819;BME280;49970;54.976;73.248;2022-07-22T08:07:21;99153.13;;;22.95;59.75
63819;BME280;49970;54.976;73.248;2022-07-22T08:09:53;99154.78;;;22.89;59.32
63819;BME280;49970;54.976;73.248;2022-07-22T08:12:46;99157.28;;;22.91;58.37
63819;BME280;49970;54.976;73.248;2022-07-22T08:15:29;99157.28;;;22.91;58.40
63819;BME280;49970;54.976;73.248;2022-07-22T08:18:08;99153.91;;;23.02;59.55
63819;BME280;49970;54.976;73.248;2022-07-22T08:20:43;99156.19;;;23.05;60.57
63819;BME280;49970;54.976;73.248;2022-07-22T08:23:12;99166.41;;;22.90;60.03
63819;BME280;49970;54.976;73.248;2022-07-22T08:25:45;99143.44;;;22.80;60.86
63819;BME280;49970;54.976;73.248;2022-07-22T08:28:17;99168.09;;;22.91;60.31
63819;BME280;49970;54.976;73.248;2022-07-22T08:30:46;99164.16;;;22.86;60.14
63819;BME280;49970;54.976;73.248;2022-07-22T08:33:26;99166.41;;;22.90;60.27
63819;BME280;49970;54.976;73.248;2022-07-22T08:36:02;99161.88;;;22.90;60.32
63819;BME280;49970;54.976;73.248;2022-07-22T08:38:32;99179.53;;;22.93;60.04
63819;BME280;49970;54.976;73.248;2022-07-22T08:41:04;99173.31;;;22.92;59.84
63819;BME280;49970;54.976;73.248;2022-07-22T08:43:35;99176.19;;;22.91;59.09
63819;BME280;49970;54.976;73.248;2022-07-22T08:46:15;99175.59;;;22.82;59.58
63819;BME280;49970;54.976;73.248;2022-07-22T08:49:07;99180.97;;;22.88;59.82
63819;BME280;49970;54.976;73.248;2022-07-22T08:51:52;99182.03;;;22.87;59.30
63819;BME280;49970;54.976;73.248;2022-07-22T08:54:27;99187.38;;;23.01;59.69
63819;BME280;49970;54.976;73.248;2022-07-22T08:57:00;99194.59;;;23.07;57.42
63819;BME280;49970;54.976;73.248;2022-07-22T08:59:31;99191.03;;;23.13;56.06
63819;BME280;49970;54.976;73.248;2022-07-22T09:02:09;99187.94;;;23.09;59.23
63819;BME280;49970;54.976;73.248;2022-07-22T09:04:57;99189.75;;;23.16;57.61
63819;BME280;49970;54.976;73.248;2022-07-22T09:07:32;99191.16;;;23.25;57.17
63819;BME280;49970;54.976;73.248;2022-07-22T09:10:11;99190.69;;;23.34;58.43
63819;BME280;49970;54.976;73.248;2022-07-22T09:13:05;99191.38;;;23.48;57.24
63819;BME280;49970;54.976;73.248;2022-07-22T09:15:51;99195.28;;;23.59;57.29
63819;BME280;49970;54.976;73.248;2022-07-22T09:18:52;99193.00;;;23.56;55.94
63819;BME280;49970;54.976;73.248;2022-07-22T09:21:44;99203.28;;;23.41;56.95
63819;BME280;49970;54.976;73.248;2022-07-22T09:24:30;99206.63;;;23.11;57.43
63819;BME280;49970;54.976;73.248;2022-07-22T09:27:25;99207.78;;;22.83;58.21
63819;BME280;49970;54.976;73.248;2022-07-22T09:30:17;99200.38;;;22.72;58.64
63819;BME280;49970;54.976;73.248;2022-07-22T09:32:54;99189.34;;;22.74;58.97
63819;BME280;49970;54.976;73.248;2022-07-22T09:35:45;99186.38;;;22.88;59.35
63819;BME280;49970;54.976;73.248;2022-07-22T09:38:18;99188.19;;;23.01;59.08
63819;BME280;49970;54.976;73.248;2022-07-22T09:40:47;99190.63;;;23.09;56.94
63819;BME280;49970;54.976;73.248;2022-07-22T09:43:20;99189.81;;;23.09;56.85
63819;BME280;49970;54.976;73.248;2022-07-22T09:45:56;99201.88;;;23.06;56.33
63819;BME280;49970;54.976;73.248;2022-07-22T09:48:47;99199.22;;;23.00;55.45
63819;BME280;49970;54.976;73.248;2022-07-22T09:51:37;99202.53;;;23.02;56.33
63819;BME280;49970;54.976;73.248;2022-07-22T09:54:07;99202.09;;;23.05;56.57
63819;BME280;49970;54.976;73.248;2022-07-22T09:56:38;99202.09;;;23.05;56.52
63819;BME280;49970;54.976;73.248;2022-07-22T09:59:10;99207.91;;;23.08;56.33
63819;BME280;49970;54.976;73.248;2022-07-22T10:01:45;99206.34;;;23.19;57.53
63819;BME280;49970;54.976;73.248;2022-07-22T10:04:19;99206.56;;;23.24;55.15
63819;BME280;49970;54.976;73.248;2022-07-22T10:06:51;99211.97;;;23.24;55.98
63819;BME280;49970;54.976;73.248;2022-07-22T10:09:26;99209.16;;;23.06;56.93
63819;BME280;49970;54.976;73.248;2022-07-22T10:11:57;99198.03;;;22.82;57.59
63819;BME280;49970;54.976;73.248;2022-07-22T10:14:30;99219.84;;;22.81;58.64
63819;BME280;49970;54.976;73.248;2022-07-22T10:17:02;99207.16;;;22.81;57.83
63819;BME280;49970;54.976;73.248;2022-07-22T10:19:33;99217.97;;;22.81;58.46
63819;BME280;49970;54.976;73.248;2022-07-22T10:22:03;99219.66;;;22.82;58.66
63819;BME280;49970;54.976;73.248;2022-07-22T10:24:59;99222.13;;;22.84;58.14
63819;BME280;49970;54.976;73.248;2022-07-22T10:27:49;99228.59;;;22.76;58.28
63819;BME280;49970;54.976;73.248;2022-07-22T10:30:35;99223.19;;;22.76;58.01
63819;BME280;49970;54.976;73.248;2022-07-22T10:33:12;99237.09;;;22.80;57.31
63819;BME280;49970;54.976;73.248;2022-07-22T10:38:16;99239.81;;;22.73;58.10
63819;BME280;49970;54.976;73.248;2022-07-22T10:41:03;99235.88;;;22.69;59.02
63819;BME280;49970;54.976;73.248;2022-07-22T10:46:10;99229.63;;;22.75;57.95
63819;BME280;49970;54.976;73.248;2022-07-22T10:51:09;99235.81;;;22.96;58.42
63819;BME280;49970;54.976;73.248;2022-07-22T10:53:57;99242.63;;;23.05;57.91
63819;BME280;49970;54.976;73.248;2022-07-22T10:58:56;99242.34;;;23.13;57.25
63819;BME280;49970;54.976;73.248;2022-07-22T11:01:32;99239.84;;;23.11;56.48
63819;BME280;49970;54.976;73.248;2022-07-22T11:04:21;99244.88;;;23.08;57.40
63819;BME280;49970;54.976;73.248;2022-07-22T11:06:55;99245.09;;;23.06;57.20
63819;BME280;49970;54.976;73.248;2022-07-22T11:09:32;99238.84;;;23.06;58.05
63819;BME280;49970;54.976;73.248;2022-07-22T11:12:00;99250.66;;;23.11;57.88
63819;BME280;49970;54.976;73.248;2022-07-22T11:14:31;99249.19;;;23.16;56.91
63819;BME280;49970;54.976;73.248;2022-07-22T11:17:11;99239.59;;;23.20;57.20
63819;BME280;49970;54.976;73.248;2022-07-22T11:19:42;99248.91;;;23.30;57.34
63819;BME280;49970;54.976;73.248;2022-07-22T11:22:13;99237.50;;;23.28;56.84
63819;BME280;49970;54.976;73.248;2022-07-22T11:24:48;99238.69;;;23.32;54.78
63819;BME280;49970;54.976;73.248;2022-07-22T11:27:18;99247.03;;;23.31;54.45
63819;BME280;49970;54.976;73.248;2022-07-22T11:29:51;99247.69;;;23.26;54.84
63819;BME280;49970;54.976;73.248;2022-07-22T11:32:22;99248.34;;;23.22;55.55
63819;BME280;49970;54.976;73.248;2022-07-22T11:34:50;99248.19;;;23.10;54.91
63819;BME280;49970;54.976;73.248;2022-07-22T11:37:24;99241.63;;;22.93;55.38
63819;BME280;49970;54.976;73.248;2022-07-22T11:40:05;99255.53;;;22.90;56.36
63819;BME280;49970;54.976;73.248;2022-07-22T11:42:39;99254.53;;;22.84;55.49
63819;BME280;49970;54.976;73.248;2022-07-22T11:45:11;99266.56;;;22.81;56.26
63819;BME280;49970;54.976;73.248;2022-07-22T11:47:49;99251.47;;;22.60;56.49
63819;BME280;49970;54.976;73.248;2022-07-22T11:50:29;99276.19;;;22.64;57.01
63819;BME280;49970;54.976;73.248;2022-07-22T11:53:02;99258.81;;;22.47;56.97
63819;BME280;49970;54.976;73.248;2022-07-22T11:55:31;99283.53;;;22.37;57.55
63819;BME280;49970;54.976;73.248;2022-07-22T11:58:01;99279.78;;;22.38;58.03
63819;BME280;49970;54.976;73.248;2022-07-22T12:00:34;99283.31;;;22.38;58.52
63819;BME280;49970;54.976;73.248;2022-07-22T12:03:02;99273.34;;;22.39;57.81
63819;BME280;49970;54.976;73.248;2022-07-22T12:05:32;99272.28;;;22.47;57.57
63819;BME280;49970;54.976;73.248;2022-07-22T12:08:05;99282.88;;;22.48;57.60
63819;BME280;49970;54.976;73.248;2022-07-22T12:10:35;99282.69;;;22.43;56.98
63819;BME280;49970;54.976;73.248;2022-07-22T12:13:11;99285.41;;;22.36;57.40
63819;BME280;49970;54.976;73.248;2022-07-22T12:15:42;99288.94;;;22.37;57.24
63819;BME280;49970;54.976;73.248;2022-07-22T12:18:18;99295.56;;;22.34;58.12
63819;BME280;49970;54.976;73.248;2022-07-22T12:20:48;99293.69;;;22.35;58.12
63819;BME280;49970;54.976;73.248;2022-07-22T12:23:19;99303.25;;;22.37;57.52
63819;BME280;49970;54.976;73.248;2022-07-22T12:25:57;99294.31;;;22.37;57.33
63819;BME280;49970;54.976;73.248;2022-07-22T12:28:32;99294.50;;;22.35;57.16
63819;BME280;49970;54.976;73.248;2022-07-22T12:31:03;99284.56;;;22.29;57.12
63819;BME280;49970;54.976;73.248;2022-07-22T12:33:47;99296.19;;;22.30;57.54
63819;BME280;49970;54.976;73.248;2022-07-22T12:36:17;99288.94;;;22.37;58.09
63819;BME280;49970;54.976;73.248;2022-07-22T12:38:47;99300.50;;;22.44;58.44
63819;BME280;49970;54.976;73.248;2022-07-22T12:41:50;99291.41;;;22.45;57.34
63819;BME280;49970;54.976;73.248;2022-07-22T12:44:26;99293.47;;;22.43;56.55
63819;BME280;49970;54.976;73.248;2022-07-22T12:46:55;99291.41;;;22.38;56.23
63819;BME280;49970;54.976;73.248;2022-07-22T12:49:25;99296.41;;;22.28;56.11
63819;BME280;49970;54.976;73.248;2022-07-22T12:52:12;99290.19;;;22.15;56.39
63819;BME280;49970;54.976;73.248;2022-07-22T12:54:43;99303.25;;;22.18;56.91
63819;BME280;49970;54.976;73.248;2022-07-22T12:57:14;99304.91;;;22.19;56.95
63819;BME280;49970;54.976;73.248;2022-07-22T12:59:51;99305.34;;;22.16;55.89
63819;BME280;49970;54.976;73.248;2022-07-22T13:02:22;99315.09;;;22.17;56.42
63819;BME280;49970;54.976;73.248;2022-07-22T13:04:53;99313.44;;;22.16;55.26
63819;BME280;49970;54.976;73.248;2022-07-22T13:07:25;99309.47;;;22.11;55.60
63819;BME280;49970;54.976;73.248;2022-07-22T13:09:56;99305.72;;;22.06;55.37
63819;BME280;49970;54.976;73.248;2022-07-22T13:12:32;99302.00;;;22.00;55.81
63819;BME280;49970;54.976;73.248;2022-07-22T13:15:03;99302.59;;;22.02;55.99
63819;BME280;49970;54.976;73.248;2022-07-22T13:17:32;99306.34;;;22.01;56.53
63819;BME280;49970;54.976;73.248;2022-07-22T13:20:00;99301.78;;;21.95;56.28
63819;BME280;49970;54.976;73.248;2022-07-22T13:22:29;99320.25;;;21.92;55.20
63819;BME280;49970;54.976;73.248;2022-07-22T13:25:20;99317.13;;;21.88;55.11
63819;BME280;49970;54.976;73.248;2022-07-22T13:27:51;99314.44;;;21.88;54.66
63819;BME280;49970;54.976;73.248;2022-07-22T13:30:18;99315.91;;;21.91;55.65
63819;BME280;49970;54.976;73.248;2022-07-22T13:32:44;99309.44;;;21.85;54.62
63819;BME280;49970;54.976;73.248;2022-07-22T13:35:11;99317.75;;;21.83;54.78
63819;BME280;49970;54.976;73.248;2022-07-22T13:37:38;99312.38;;;21.83;55.07
63819;BME280;49970;54.976;73.248;2022-07-22T13:40:04;99314.41;;;21.81;55.23
63819;BME280;49970;54.976;73.248;2022-07-22T13:42:31;99310.06;;;21.80;55.68
63819;BME280;49970;54.976;73.248;2022-07-22T13:44:57;99315.06;;;21.83;55.45
63819;BME280;49970;54.976;73.248;2022-07-22T13:47:24;99313.81;;;21.79;55.73
63819;BME280;49970;54.976;73.248;2022-07-22T13:50:03;99318.59;;;21.84;56.48
63819;BME280;49970;54.976;73.248;2022-07-22T13:52:29;99321.06;;;21.85;56.34
63819;BME280;49970;54.976;73.248;2022-07-22T13:55:01;99323.56;;;21.80;55.75
63819;BME280;49970;54.976;73.248;2022-07-22T13:57:39;99301.13;;;21.60;55.96
63819;BME280;49970;54.976;73.248;2022-07-22T14:00:10;99330.78;;;21.73;56.06
63819;BME280;49970;54.976;73.248;2022-07-22T14:02:37;99332.66;;;21.66;55.70
63819;BME280;49970;54.976;73.248;2022-07-22T14:05:08;99334.72;;;21.64;54.72
63819;BME280;49970;54.976;73.248;2022-07-22T14:07:35;99328.47;;;21.57;54.50
63819;BME280;49970;54.976;73.248;2022-07-22T14:10:02;99332.44;;;21.61;54.77
63819;BME280;49970;54.976;73.248;2022-07-22T14:12:28;99347.59;;;21.62;55.39
63819;BME280;49970;54.976;73.248;2022-07-22T14:14:55;99336.81;;;21.62;55.29
63819;BME280;49970;54.976;73.248;2022-07-22T14:17:31;99338.44;;;21.56;54.96
63819;BME280;49970;54.976;73.248;2022-07-22T14:19:57;99336.16;;;21.53;55.05
63819;BME280;49970;54.976;73.248;2022-07-22T14:22:30;99333.88;;;21.50;55.30
63819;BME280;49970;54.976;73.248;2022-07-22T14:24:56;99335.53;;;21.51;55.41
63819;BME280;49970;54.976;73.248;2022-07-22T14:31:32;99338.22;;;21.45;55.97
63819;BME280;49970;54.976;73.248;2022-07-22T14:35:23;99342.53;;;21.39;55.75
63819;BME280;49970;54.976;73.248;2022-07-22T14:39:39;99343.16;;;21.34;56.23
63819;BME280;49970;54.976;73.248;2022-07-22T14:43:30;99340.81;;;21.31;56.16
63819;BME280;49970;54.976;73.248;2022-07-22T14:47:01;99321.28;;;21.09;56.09
63819;BME280;49970;54.976;73.248;2022-07-22T14:49:28;99355.94;;;21.26;56.14
63819;BME280;49970;54.976;73.248;2022-07-22T14:51:54;99351.75;;;21.23;55.86
63819;BME280;49970;54.976;73.248;2022-07-22T14:54:20;99353.84;;;21.21;56.26
63819;BME280;49970;54.976;73.248;2022-07-22T14:56:46;99353.19;;;21.19;55.84
63819;BME280;49970;54.976;73.248;2022-07-22T14:59:13;99352.78;;;21.16;55.25
63819;BME280;49970;54.976;73.248;2022-07-22T15:01:39;99353.19;;;21.12;55.68
63819;BME280;49970;54.976;73.248;2022-07-22T15:04:05;99354.84;;;21.13;56.88
63819;BME280;49970;54.976;73.248;2022-07-22T15:06:32;99360.28;;;21.20;57.69
63819;BME280;49970;54.976;73.248;2022-07-22T15:08:58;99361.94;;;21.21;56.73
63819;BME280;49970;54.976;73.248;2022-07-22T15:11:24;99361.94;;;21.21;56.69
63819;BME280;49970;54.976;73.248;2022-07-22T15:13:50;99367.31;;;21.21;56.44
63819;BME280;49970;54.976;73.248;2022-07-22T15:16:17;99362.72;;;21.15;56.50
63819;BME280;49970;54.976;73.248;2022-07-22T15:18:43;99369.56;;;21.18;58.24
63819;BME280;49970;54.976;73.248;2022-07-22T15:21:09;99358.53;;;21.06;57.38
63819;BME280;49970;54.976;73.248;2022-07-22T15:23:36;99369.31;;;21.06;58.17
63819;BME280;49970;54.976;73.248;2022-07-22T15:26:03;99381.34;;;21.10;58.58
63819;BME280;49970;54.976;73.248;2022-07-22T15:28:29;99370.56;;;21.03;58.63
63819;BME280;49970;54.976;73.248;2022-07-22T15:30:56;99379.91;;;21.07;59.41
63819;BME280;49970;54.976;73.248;2022-07-22T15:33:25;99379.25;;;21.05;57.83
63819;BME280;49970;54.976;73.248;2022-07-22T15:35:51;99371.53;;;20.96;56.86
63819;BME280;49970;54.976;73.248;2022-07-22T15:38:17;99376.72;;;20.97;57.45
63819;BME280;49970;54.976;73.248;2022-07-22T15:40:44;99377.09;;;20.94;57.10
63819;BME280;49970;54.976;73.248;2022-07-22T15:43:10;99368.63;;;20.91;57.51
63819;BME280;49970;54.976;73.248;2022-07-22T15:45:36;99369.63;;;20.89;58.84
63819;BME280;49970;54.976;73.248;2022-07-22T15:48:03;99384.34;;;20.94;59.33
63819;BME280;49970;54.976;73.248;2022-07-22T15:50:32;99381.66;;;20.87;59.72
63819;BME280;49970;54.976;73.248;2022-07-22T15:52:58;99383.25;;;20.81;60.05
63819;BME280;49970;54.976;73.248;2022-07-22T15:55:25;99355.81;;;20.64;60.39
63819;BME280;49970;54.976;73.248;2022-07-22T15:57:55;99385.25;;;20.73;60.54
63819;BME280;49970;54.976;73.248;2022-07-22T16:00:40;99382.56;;;20.66;60.79
63819;BME280;49970;54.976;73.248;2022-07-22T16:03:06;99389.13;;;20.57;60.90
63819;BME280;49970;54.976;73.248;2022-07-22T16:05:43;99390.72;;;20.51;61.28
63819;BME280;49970;54.976;73.248;2022-07-22T16:08:19;99389.41;;;20.47;61.35
63819;BME280;49970;54.976;73.248;2022-07-22T16:10:54;99390.66;;;20.45;61.63
63819;BME280;49970;54.976;73.248;2022-07-22T16:13:20;99400.56;;;20.44;62.13
63819;BME280;49970;54.976;73.248;2022-07-22T16:15:49;99387.44;;;20.34;62.53
63819;BME280;49970;54.976;73.248;2022-07-22T16:18:16;99388.63;;;20.25;62.70
63819;BME280;49970;54.976;73.248;2022-07-22T16:20:42;99382.56;;;20.17;62.90
63819;BME280;49970;54.976;73.248;2022-07-22T16:23:19;99393.69;;;20.13;63.13
63819;BME280;49970;54.976;73.248;2022-07-22T16:25:45;99398.81;;;20.08;64.14
63819;BME280;49970;54.976;73.248;2022-07-22T16:28:11;99400.44;;;20.03;64.23
63819;BME280;49970;54.976;73.248;2022-07-22T16:30:37;99397.88;;;19.95;64.56
63819;BME280;49970;54.976;73.248;2022-07-22T16:33:04;99401.75;;;19.92;63.89
63819;BME280;49970;54.976;73.248;2022-07-22T16:35:40;99391.97;;;19.84;63.82
63819;BME280;49970;54.976;73.248;2022-07-22T16:38:06;99403.16;;;19.88;64.50
63819;BME280;49970;54.976;73.248;2022-07-22T16:40:32;99403.06;;;19.81;64.36
63819;BME280;49970;54.976;73.248;2022-07-22T16:42:59;99410.97;;;19.83;64.79
63819;BME280;49970;54.976;73.248;2022-07-22T16:45:26;99417.28;;;19.75;64.49
63819;BME280;49970;54.976;73.248;2022-07-22T16:47:55;99412.28;;;19.72;64.88
63819;BME280;49970;54.976;73.248;2022-07-22T16:50:22;99414.09;;;19.65;65.14
63819;BME280;49970;54.976;73.248;2022-07-22T16:52:54;99420.16;;;19.59;65.29
63819;BME280;49970;54.976;73.248;2022-07-22T16:55:21;99411.19;;;19.52;65.49
63819;BME280;49970;54.976;73.248;2022-07-22T16:57:47;99406.22;;;19.49;65.31
63819;BME280;49970;54.976;73.248;2022-07-22T17:00:14;99416.31;;;19.47;65.82